Latest Weather Observations for Croker Island Airport

IDD60801

Issued at 8:11 am CST Monday 1 March 2021 (issued every 10 minutes, with the page automatically refreshed every 10 minutes)

About weather observations | Map of weather stations | Latest weather observations for NT | Other Formats
Station Details ID: 014308 Name: CROKER ISLAND AIRPORT Lat: -11.16 Lon: 132.48 Height: 9.2 m
Data from the previous 72 hours. | See also: Recent months at Croker Island Airport
Date/Time
CST
Temp
°C
App
Temp
°C
Dew
Point
°C
Rel
Hum
%
Delta-T
°C
Wind Press
QNH
hPa
Press
MSL
hPa
Rain since
9am
mm
Dir  Spd
km/h
Gust
km/h
Spd
kts
Gust
kts
01/08:00am 28.6 34.1 25.6 84 2.1 WSW 7 11 4 6 1009.2 1009.1 0.0
01/07:30am 28.4 33.4 25.4 84 2.1 WSW 9 13 5 7 1009.0 1008.9 0.0
01/07:00am 28.4 33.3 25.2 83 2.2 W 9 17 5 9 1008.7 1008.6 0.0
01/06:30am 28.4 32.9 25.2 83 2.2 W 11 15 6 8 1008.5 1008.4 0.0
01/06:00am 28.2 32.4 24.8 82 2.4 WNW 11 17 6 9 1008.1 1008.0 0.0
01/05:30am 28.2 32.4 24.8 82 2.4 WNW 11 17 6 9 1007.8 1007.7 0.0
01/05:00am 28.1 32.2 24.5 81 2.5 WNW 11 17 6 9 1007.5 1007.4 0.0
01/04:30am 28.2 32.6 25.0 83 2.2 WNW 11 17 6 9 1007.7 1007.6 0.0
01/04:00am 28.3 32.2 24.9 82 2.4 WNW 13 19 7 10 1007.8 1007.7 0.0
01/03:30am 28.1 32.5 25.1 84 2.1 WNW 11 15 6 8 1007.8 1007.7 0.0
01/03:00am 28.0 32.7 25.0 84 2.1 WNW 9 15 5 8 1007.9 1007.8 0.0
01/02:30am 28.3 33.1 25.1 83 2.2 WNW 9 17 5 9 1008.0 1007.9 0.0
01/02:00am 28.3 32.5 24.7 81 2.5 NW 11 20 6 11 1008.2 1008.1 0.0
01/01:30am 28.5 33.4 25.3 83 2.3 WNW 9 15 5 8 1008.5 1008.4 0.0
01/01:00am 28.6 33.0 25.0 81 2.5 WNW 11 17 6 9 1008.5 1008.4 0.0
01/12:30am 28.5 32.9 25.1 82 2.4 WNW 11 15 6 8 1008.8 1008.7 0.0
01/12:00am 28.3 32.7 25.1 83 2.2 WNW 11 15 6 8 1009.0 1008.9 0.0
 
Date/Time
CST
Temp
°C
App
Temp
°C
Dew
Point
°C
Rel
Hum
%
Delta-T
°C
Wind Press
QNH
hPa
Press
MSL
hPa
Rain since
9am
mm
Dir  Spd
km/h
Gust
km/h
Spd
kts
Gust
kts
28/11:30pm 28.4 32.6 24.8 81 2.5 NW 11 15 6 8 1009.1 1009.0 0.0
28/11:00pm 28.6 33.1 25.2 82 2.4 WNW 11 17 6 9 1009.1 1009.0 0.0
28/10:30pm 28.6 33.0 25.0 81 2.5 WNW 11 17 6 9 1009.0 1008.9 0.0
28/10:00pm 28.6 33.0 24.4 78 2.9 WNW 9 15 5 8 1008.7 1008.6 0.0
28/09:30pm 28.7 32.9 24.7 79 2.8 WNW 11 17 6 9 1008.3 1008.2 0.0
28/09:00pm 28.7 32.4 24.5 78 2.9 WNW 13 19 7 10 1007.9 1007.8 0.0
28/08:30pm 28.8 32.8 25.0 80 2.7 W 13 19 7 10 1007.7 1007.6 0.0
28/08:00pm 28.7 31.9 24.3 77 3.1 WNW 15 20 8 11 1007.5 1007.4 0.0
28/07:30pm 28.8 32.2 24.6 78 2.9 WNW 15 20 8 11 1007.1 1007.0 0.0
28/07:00pm 28.9 31.5 24.0 75 3.4 WNW 17 20 9 11 1006.8 1006.7 0.0
28/06:30pm 29.5 33.2 24.6 75 3.4 WNW 13 20 7 11 1006.4 1006.3 0.0
28/06:00pm 30.0 32.9 24.4 72 3.9 WNW 17 24 9 13 1006.2 1006.1 0.0
28/05:30pm 30.5 33.8 25.1 73 3.8 WNW 17 24 9 13 1006.1 1006.0 0.0
28/05:00pm 30.9 34.9 25.0 71 4.2 NW 13 20 7 11 1005.8 1005.7 0.0
28/04:30pm 30.8 34.6 24.7 70 4.3 NW 13 19 7 10 1005.4 1005.3 0.0
28/04:00pm 30.7 34.4 24.6 70 4.3 NW 13 19 7 10 1005.7 1005.6 0.0
28/03:30pm 31.0 35.2 25.4 72 4.0 NW 13 20 7 11 1006.0 1005.9 0.0
28/03:00pm 30.7 34.7 25.1 72 4.0 NNW 13 20 7 11 1006.4 1006.3 0.0
28/02:30pm 30.9 35.7 25.7 74 3.7 NW 11 19 6 10 1006.9 1006.8 0.0
28/02:00pm 30.4 34.4 25.0 73 3.8 NW 13 19 7 10 1006.9 1006.8 0.0
28/01:30pm 30.2 34.2 25.0 73 3.7 NW 13 17 7 9 1007.6 1007.5 0.0
28/01:00pm 30.4 35.1 25.5 75 3.5 NW 11 17 6 9 1007.9 1007.8 0.0
28/12:30pm 30.0 34.3 24.9 74 3.6 NW 11 15 6 8 1008.1 1008.0 0.0
28/12:00pm 30.1 35.0 25.2 75 3.5 NW 9 15 5 8 1008.5 1008.4 0.0
28/11:30am 29.9 34.9 24.8 74 3.6 NW 7 13 4 7 1008.9 1008.8 0.0
28/11:00am 30.4 36.0 25.7 76 3.3 NW 7 13 4 7 1009.2 1009.1 0.0
28/10:30am 30.1 34.7 24.7 73 3.8 NNW 9 13 5 7 1009.3 1009.2 0.0
28/10:00am 30.1 35.2 24.9 73 3.6 NW 7 13 4 7 1009.3 1009.2 0.0
28/09:30am 29.5 35.2 25.0 77 3.2 W 4 6 2 3 1009.3 1009.2 0.0
28/09:00am 29.0 34.4 25.2 80 2.7 W 6 7 3 4 1009.3 1009.2 0.0
28/08:30am 28.6 34.2 25.4 83 2.3 W 6 9 3 5 1009.0 1008.9 0.0
28/08:00am 28.2 33.9 25.0 83 2.2 W 4 6 2 3 1008.4 1008.3 0.0
28/07:30am 27.9 33.2 24.9 84 2.1 W 6 7 3 4 1007.9 1007.8 0.0
28/07:00am 27.8 33.1 25.0 85 2.0 WSW 6 9 3 5 1007.5 1007.4 0.0
28/06:30am 27.8 33.1 25.0 85 2.0 WSW 6 11 3 6 1007.1 1007.0 0.0
28/06:00am 27.5 32.4 24.6 84 2.0 WNW 7 13 4 7 1007.0 1006.9 0.0
28/05:30am 27.4 32.3 24.7 85 1.9 WNW 7 11 4 6 1006.7 1006.6 0.0
28/05:00am 27.2 32.3 24.7 86 1.7 WNW 6 7 3 4 1006.4 1006.3 0.0
28/04:30am 27.1 32.0 24.4 85 1.9 NW 6 7 3 4 1006.3 1006.2 0.0
28/04:00am 27.1 32.0 24.4 85 1.9 NW 6 7 3 4 1006.4 1006.3 0.0
28/03:30am 26.9 32.2 24.4 86 1.7 NW 4 6 2 3 1006.6 1006.5 0.0
28/03:00am 26.9 31.7 24.2 85 1.9 NNW 6 7 3 4 1006.8 1006.7 0.0
28/02:30am 26.8 31.5 23.9 84 2.0 NNW 6 7 3 4 1006.9 1006.8 0.0
28/02:00am 27.2 32.0 24.1 83 2.1 N 6 6 3 3 1007.0 1006.9 0.0
28/01:30am 27.3 31.8 23.7 81 2.5 NNW 6 9 3 5 1007.2 1007.1 0.0
28/01:00am 27.0 31.7 23.9 83 2.1 NW 6 6 3 3 1007.3 1007.2 0.0
28/12:30am 26.6 31.1 23.7 84 2.0 NNW 6 7 3 4 1007.4 1007.3 0.0
28/12:00am 27.3 32.1 23.5 80 2.6 WNW 4 7 2 4 1007.4 1007.3 0.0
 
Date/Time
CST
Temp
°C
App
Temp
°C
Dew
Point
°C
Rel
Hum
%
Delta-T
°C
Wind Press
QNH
hPa
Press
MSL
hPa
Rain since
9am
mm
Dir  Spd
km/h
Gust
km/h
Spd
kts
Gust
kts
27/11:30pm 27.4 32.3 23.6 80 2.6 NW 4 7 2 4 1007.5 1007.4 0.0
27/11:00pm 27.4 31.9 23.6 80 2.6 NW 6 9 3 5 1007.4 1007.3 0.0
27/10:30pm 27.6 31.9 23.6 79 2.8 NW 7 9 4 5 1007.2 1007.1 0.0
27/10:00pm 27.7 32.0 24.3 82 2.4 NNW 9 15 5 8 1007.2 1007.1 0.0
27/09:30pm 27.7 31.9 24.1 81 2.5 NNW 9 13 5 7 1006.7 1006.6 0.0
27/09:00pm 27.5 32.3 24.1 82 2.4 NW 6 9 3 5 1006.5 1006.4 0.0
27/08:30pm 27.7 32.3 24.1 81 2.5 NNW 7 11 4 6 1006.1 1006.0 0.0
27/08:00pm 27.3 32.5 24.2 83 2.1 NNW 4 6 2 3 1005.7 1005.6 0.0
27/07:30pm 27.4 32.2 24.1 82 2.3 NW 6 7 3 4 1005.3 1005.2 0.0
27/07:00pm 27.6 32.3 24.0 81 2.5 NW 6 7 3 4 1005.0 1004.9 0.0
27/06:30pm 28.3 33.7 23.9 77 3.0 WNW 2 4 1 2 1004.6 1004.5 0.0
27/06:00pm 28.7 34.2 24.0 76 3.3 NW 2 7 1 4 1004.5 1004.4 0.0
27/05:30pm 28.7 33.4 24.0 76 3.3 WNW 6 9 3 5 1004.2 1004.1 0.0
27/05:00pm 29.4 34.1 24.3 74 3.5 NW 7 11 4 6 1004.2 1004.1 0.0
27/04:30pm 29.6 34.2 24.2 73 3.8 NW 7 13 4 7 1004.0 1003.9 0.0
27/04:00pm 29.4 33.3 24.3 74 3.5 NNW 11 17 6 9 1004.1 1004.0 0.0
27/03:30pm 29.7 33.6 24.3 73 3.8 NNW 11 17 6 9 1004.5 1004.4 0.0
27/03:00pm 29.9 33.8 24.3 72 3.9 NNW 11 17 6 9 1004.7 1004.6 0.0
27/02:30pm 29.8 34.4 24.7 74 3.6 NNW 9 17 5 9 1005.0 1004.9 0.0
27/02:00pm 29.4 33.5 24.0 72 3.7 NNW 9 15 5 8 1005.2 1005.1 0.0
27/01:30pm 29.3 33.4 24.0 73 3.7 NW 9 13 5 7 1005.6 1005.5 0.0
27/01:00pm 29.4 33.2 24.0 72 3.7 NW 11 17 6 9 1006.1 1006.0 0.0
27/12:30pm 29.8 34.2 24.4 73 3.8 NW 9 13 5 7 1006.4 1006.3 0.0
27/12:00pm 29.7 34.4 24.3 73 3.8 W 7 11 4 6 1006.6 1006.5 0.0
27/11:30am 29.1 33.9 24.2 75 3.4 WSW 6 9 3 5 1006.7 1006.6 0.0
27/11:00am 29.2 34.3 24.1 74 3.5 WSW 4 6 2 3 1006.6 1006.5 0.0
27/10:30am 29.3 34.9 23.5 71 4.0 CALM 0 0 0 0 1006.8 1006.7 0.0
27/10:00am 28.8 33.9 24.1 76 3.3 ESE 4 7 2 4 1006.6 1006.5 0.0
27/09:30am 27.8 32.2 23.8 79 2.8 ESE 7 11 4 6 1006.4 1006.3 0.0
27/09:00am 27.2 32.1 23.7 81 2.4 SE 4 6 2 3 1006.3 1006.2 5.2
27/08:30am 26.5 30.9 23.4 83 2.1 SE 6 7 3 4 1006.2 1006.1 5.2
27/08:00am 25.8 31.0 23.5 87 1.6 SE 2 4 1 2 1005.8 1005.7 5.2
27/07:30am 24.8 28.9 23.0 90 1.2 SE 6 7 3 4 1005.3 1005.2 5.2
27/07:00am 24.5 28.8 22.6 89 1.3 SSE 4 6 2 3 1004.9 1004.8 5.2
27/06:30am 24.4 28.3 22.5 89 1.3 S 6 7 3 4 1004.6 1004.5 5.2
27/06:00am 23.9 28.4 22.3 91 1.1 SE 2 4 1 2 1004.8 1004.7 5.2
27/05:30am 23.9 28.0 22.2 90 1.1 SE 4 6 2 3 1004.6 1004.5 5.2
27/05:00am 24.1 27.7 22.0 88 1.4 ESE 6 7 3 4 1004.2 1004.1 5.2
27/04:30am 24.3 28.5 22.4 89 1.3 SSE 4 6 2 3 1004.2 1004.1 5.2
27/04:00am 24.6 28.7 22.3 87 1.5 S 4 9 2 5 1004.3 1004.2 5.2
27/03:30am 24.5 28.2 22.6 89 1.3 S 7 11 4 6 1004.7 1004.6 5.2
27/03:00am 24.5 27.1 22.6 89 1.3 S 13 17 7 9 1004.8 1004.7 5.2
27/02:30am 24.5 27.6 22.8 90 1.1 SSW 11 17 6 9 1005.3 1005.2 5.2
27/02:00am 24.2 27.2 21.9 87 1.5 SE 9 15 5 8 1005.5 1005.4 5.2
27/01:30am 24.3 26.0 22.4 89 1.3 SSE 17 24 9 13 1006.1 1006.0 5.2
27/01:00am 23.8 26.0 22.6 93 0.8 SSE 15 24 8 13 1006.5 1006.4 5.0
27/12:30am 23.9 26.0 22.5 92 0.9 SE 15 28 8 15 1007.1 1007.0 4.4
27/12:00am 24.6 25.3 22.3 87 1.5 SSE 22 41 12 22 1006.9 1006.8 0.0
 
Date/Time
CST
Temp
°C
App
Temp
°C
Dew
Point
°C
Rel
Hum
%
Delta-T
°C
Wind Press
QNH
hPa
Press
MSL
hPa
Rain since
9am
mm
Dir  Spd
km/h
Gust
km/h
Spd
kts
Gust
kts
26/11:30pm 26.8 32.9 24.5 87 1.6 CALM 0 0 0 0 1006.7 1006.6 0.0
26/11:00pm 26.5 32.5 24.2 87 1.6 CALM 0 2 0 1 1006.8 1006.7 0.0
26/10:30pm 26.7 32.4 23.8 84 2.0 CALM 0 0 0 0 1006.6 1006.5 0.0
26/10:00pm 27.2 33.1 24.1 83 2.1 CALM 0 0 0 0 1006.4 1006.3 0.0
26/09:30pm 27.3 31.8 23.7 81 2.5 NW 6 7 3 4 1005.9 1005.8 0.0
26/09:00pm 27.3 31.8 23.7 81 2.5 NW 6 7 3 4 1005.3 1005.2 0.0
26/08:30pm 27.3 32.2 23.7 81 2.5 N 4 6 2 3 1004.7 1004.6 0.0
26/08:00pm 27.5 32.0 23.7 80 2.6 N 6 9 3 5 1004.6 1004.5 0.0
26/07:30pm 27.7 32.0 23.7 79 2.8 N 7 9 4 5 1004.5 1004.4 0.0
26/07:00pm 28.0 32.2 23.4 76 3.2 N 7 9 4 5 1004.2 1004.1 0.0
26/06:30pm 28.4 32.6 23.5 75 3.4 N 7 9 4 5 1003.7 1003.6 0.0
26/06:00pm 28.9 33.2 24.2 76 3.3 N 9 13 5 7 1003.2 1003.1 0.0
26/05:30pm 29.5 34.1 24.1 72 3.8 N 7 9 4 5 1002.8 1002.7 0.0
26/05:00pm 30.4 34.8 23.8 68 4.6 NE 7 11 4 6 1002.8 1002.7 0.0
26/04:30pm 30.3 34.5 23.2 65 4.9 N 6 9 3 5 1002.8 1002.7 0.0
26/04:00pm 30.5 34.9 23.4 66 4.9 ENE 6 9 3 5 1002.9 1002.8 0.0
26/03:30pm 30.8 34.6 22.7 62 5.6 N 7 11 4 6 1003.1 1003.0 0.0
26/03:00pm 29.7 34.4 25.0 76 3.3 NW 9 15 5 8 1003.2 1003.1 0.0
26/02:30pm 30.3 35.4 24.9 73 3.8 SW 7 11 4 6 1003.3 1003.2 0.0
26/02:00pm 29.8 34.6 24.2 72 3.9 WSW 6 9 3 5 1003.8 1003.7 0.0
26/01:30pm 30.5 36.0 25.3 74 3.7 NW 6 11 3 6 1003.9 1003.8 0.0
26/01:00pm 29.9 34.3 24.5 73 3.8 WNW 9 11 5 6 1004.4 1004.3 0.0
26/12:30pm 29.9 34.2 24.3 72 3.9 NW 9 13 5 7 1004.8 1004.7 0.0
26/12:00pm 30.2 35.4 25.7 77 3.2 NW 9 13 5 7 1005.3 1005.2 0.0
26/11:30am 29.9 34.3 24.5 73 3.8 NW 9 15 5 8 1006.0 1005.9 0.0
26/11:00am 29.6 34.0 23.8 71 4.0 NW 7 11 4 6 1005.9 1005.8 0.0
26/10:30am 29.4 34.4 24.5 75 3.4 WSW 6 7 3 4 1006.2 1006.1 0.0
26/10:00am 28.9 33.8 23.1 71 4.0 NE 2 6 1 3 1006.1 1006.0 0.0
26/09:30am 28.5 33.2 23.4 74 3.5 N 4 7 2 4 1006.1 1006.0 0.0
26/09:00am 27.8 32.8 22.5 73 3.6 CALM 0 0 0 0 1005.8 1005.7 0.0
26/08:30am 27.7 32.0 22.6 74 3.5 ESE 4 6 2 3 1005.5 1005.4 0.0

Other formats

Comma delimited format used in spreadsheet applications
http://www.bom.gov.au/fwo/IDD60801/IDD60801.94108.axf

JavaScript Object Notation format (JSON) in row-major order
http://www.bom.gov.au/fwo/IDD60801/IDD60801.94108.json

Data quality

Most of these data are generated automatically and are frequently updated. Quality checks on data are not normally performed. It is possible for incorrect values to appear. Refer to information at About Latest Weather Observations and please check the disclaimer before using these data.